Time;durP1;ratioP1;P1;durP2;ratioP2;P2;SDS_P1;SDS_P2;PMS_P1;PMS_P2;Temp;Humidity;BMP_temperature;BMP_pressure;BME280_temperature;BME280_humidity;BME280_pressure;Samples;Min_cycle;Max_cycle;Signal;HPM_P1;HPM_P2
2022/10/05 00:01:34;;;;;;;4.88;1.90;;;;;;;15.39;100.00;100993.22;5070964;28;20032;-72
2022/10/05 00:04:25;;;;;;;2.88;1.70;;;;;;;15.03;100.00;100999.47;5071366;28;20414;-72
2022/10/05 00:06:59;;;;;;;2.58;1.85;;;;;;;15.32;100.00;101007.09;5071174;28;20089;-73
2022/10/05 00:09:24;;;;;;;3.72;1.90;;;;;;;15.18;100.00;101006.69;5069623;28;20036;-73
2022/10/05 00:11:50;;;;;;;3.58;1.70;;;;;;;14.97;100.00;100940.75;5070376;28;20460;-73
2022/10/05 00:14:19;;;;;;;2.53;1.70;;;;;;;15.05;100.00;100984.91;5070983;28;20028;-73
2022/10/05 00:16:46;;;;;;;2.65;1.58;;;;;;;15.04;100.00;101013.09;5069949;28;20028;-73
2022/10/05 00:19:22;;;;;;;3.90;1.85;;;;;;;15.26;100.00;100991.94;5071460;28;20024;-74
2022/10/05 00:21:47;;;;;;;4.82;1.90;;;;;;;14.29;100.00;100901.81;5070888;28;20036;-74
2022/10/05 00:24:18;;;;;;;3.53;2.00;;;;;;;15.17;100.00;101017.81;5070866;28;20028;-74
2022/10/05 00:26:43;;;;;;;3.20;2.05;;;;;;;15.02;100.00;100958.53;5069903;28;20032;-74
2022/10/05 00:29:20;;;;;;;3.33;2.03;;;;;;;14.69;100.00;100966.34;5071156;28;20028;-74
2022/10/05 00:31:45;;;;;;;2.63;1.90;;;;;;;14.80;100.00;100968.56;5070048;28;20452;-72
2022/10/05 00:34:10;;;;;;;3.15;2.10;;;;;;;14.78;100.00;100986.53;5070884;28;20100;-75
2022/10/05 00:36:38;;;;;;;3.85;2.00;;;;;;;14.85;100.00;101012.81;5070543;28;20040;-74
2022/10/05 00:39:04;;;;;;;4.72;2.10;;;;;;;14.38;100.00;100951.91;5069774;28;20028;-73
2022/10/05 00:41:43;;;;;;;2.70;2.20;;;;;;;14.30;100.00;100961.50;5070662;28;20497;-73
2022/10/05 00:44:11;;;;;;;4.28;2.17;;;;;;;14.63;100.00;101016.84;5071002;28;20028;-74
2022/10/05 00:46:53;;;;;;;2.92;2.20;;;;;;;14.76;100.00;101008.78;5070399;28;20024;-73
2022/10/05 00:49:50;;;;;;;2.92;2.20;;;;;;;14.63;100.00;101022.81;5070846;28;20025;-72
2022/10/05 00:52:42;;;;;;;3.60;2.00;;;;;;;14.80;100.00;101019.78;5035946;28;20471;-73
2022/10/05 00:55:28;;;;;;;4.10;2.15;;;;;;;14.53;100.00;101010.31;5067411;28;20052;-74
2022/10/05 00:58:18;;;;;;;2.47;2.00;;;;;;;14.47;100.00;101018.16;5070714;28;20021;-72
2022/10/05 01:01:03;;;;;;;4.22;2.17;;;;;;;13.93;100.00;101018.69;5069525;28;20056;-72
2022/10/05 01:03:38;;;;;;;2.35;2.08;;;;;;;13.83;100.00;100927.75;5074771;28;20115;-72
2022/10/05 01:06:21;;;;;;;3.20;2.17;;;;;;;14.14;100.00;101034.38;5072838;28;20059;-74
2022/10/05 01:09:05;;;;;;;4.03;2.25;;;;;;;14.05;100.00;101025.19;5075000;28;20040;-73
2022/10/05 01:11:46;;;;;;;4.50;2.72;;;;;;;14.21;100.00;101036.72;5074578;28;20471;-74
2022/10/05 01:14:40;;;;;;;2.40;2.20;;;;;;;13.91;100.00;101037.47;5073191;28;20403;-75
2022/10/05 01:17:32;;;;;;;4.85;2.20;;;;;;;14.03;100.00;101041.44;5072458;28;20036;-73
2022/10/05 01:20:34;;;;;;;4.32;2.50;;;;;;;14.04;100.00;101043.16;5065915;28;20040;-74
2022/10/05 01:23:07;;;;;;;4.68;2.30;;;;;;;13.83;100.00;101045.34;5054122;28;20039;-75
2022/10/05 01:25:50;;;;;;;3.70;2.10;;;;;;;13.79;100.00;101007.09;5073072;28;20068;-74
2022/10/05 01:28:30;;;;;;;3.78;2.45;;;;;;;13.50;100.00;100989.94;5072812;28;20029;-74
2022/10/05 01:31:12;;;;;;;4.25;2.30;;;;;;;13.70;100.00;100967.31;5073829;28;20031;-73
2022/10/05 01:33:40;;;;;;;2.92;2.20;;;;;;;14.00;100.00;101041.53;5073839;28;20024;-73
2022/10/05 01:36:44;;;;;;;3.60;2.50;;;;;;;13.91;100.00;101040.88;5074670;28;20464;-73
2022/10/05 01:39:35;;;;;;;2.90;2.50;;;;;;;13.50;100.00;100995.03;5074620;28;20475;-73
2022/10/05 01:42:03;;;;;;;4.15;2.58;;;;;;;13.44;100.00;101050.53;5072485;28;20048;-73
2022/10/05 01:45:00;;;;;;;3.60;2.13;;;;;;;13.51;100.00;101052.09;5072584;28;20032;-76
2022/10/05 01:47:44;;;;;;;3.30;2.60;;;;;;;13.55;100.00;101056.22;5073968;28;20032;-73
2022/10/05 01:50:25;;;;;;;3.38;2.45;;;;;;;13.65;100.00;101055.16;5073559;28;20111;-74
2022/10/05 01:53:05;;;;;;;4.05;2.30;;;;;;;13.71;100.00;101055.84;5072620;28;20123;-73
2022/10/05 01:55:42;;;;;;;4.05;2.33;;;;;;;14.06;100.00;101065.25;5073568;28;20537;-73
2022/10/05 01:58:29;;;;;;;3.45;2.10;;;;;;;13.85;100.00;100992.47;5072767;28;20033;-73
2022/10/05 02:01:12;;;;;;;3.40;2.20;;;;;;;13.53;100.00;101005.19;5070681;28;20737;-73
2022/10/05 02:03:46;;;;;;;3.63;2.30;;;;;;;13.63;100.00;101016.00;5073899;28;20569;-74
2022/10/05 02:06:20;;;;;;;3.72;2.10;;;;;;;13.79;100.00;100986.66;5074073;28;20032;-73
2022/10/05 02:08:47;;;;;;;3.38;2.25;;;;;;;13.65;100.00;101019.38;5073715;28;20062;-74
2022/10/05 02:11:16;;;;;;;5.43;1.98;;;;;;;13.92;100.00;101045.09;5073339;28;20545;-73
2022/10/05 02:14:20;;;;;;;4.53;2.10;;;;;;;14.07;100.00;101086.53;5072420;28;20119;-73
2022/10/05 02:16:47;;;;;;;4.05;2.30;;;;;;;13.91;100.00;101075.84;5072251;28;20078;-73
2022/10/05 02:19:34;;;;;;;3.33;2.58;;;;;;;13.65;100.00;101076.44;5073312;28;20038;-74
2022/10/05 02:22:11;;;;;;;6.13;3.08;;;;;;;12.77;100.00;101028.97;5073347;28;20036;-74
2022/10/05 02:24:43;;;;;;;5.05;3.58;;;;;;;12.40;100.00;101033.06;5073471;28;20049;-74
2022/10/05 02:27:12;;;;;;;5.93;3.10;;;;;;;12.57;100.00;101051.47;5069557;28;20056;-73
2022/10/05 02:29:44;;;;;;;5.97;2.92;;;;;;;12.42;100.00;101095.09;5072128;28;20029;-75
2022/10/05 02:32:16;;;;;;;3.63;3.13;;;;;;;12.10;100.00;101087.16;5072872;28;20446;-75
2022/10/05 02:34:42;;;;;;;4.72;3.22;;;;;;;12.14;100.00;101104.91;5091375;28;20047;-75
2022/10/05 02:37:36;;;;;;;6.85;3.45;;;;;;;12.08;100.00;101097.38;5076029;28;20029;-72
2022/10/05 02:40:20;;;;;;;6.32;3.78;;;;;;;12.18;100.00;101104.00;5073659;28;20497;-72
2022/10/05 02:43:13;;;;;;;5.80;3.17;;;;;;;11.80;100.00;101113.97;5073297;28;20032;-73
2022/10/05 02:46:04;;;;;;;6.43;3.30;;;;;;;11.75;100.00;101110.63;5072732;28;20033;-72
2022/10/05 02:48:35;;;;;;;6.53;3.47;;;;;;;10.96;100.00;101056.50;5073280;28;20028;-73
2022/10/05 02:51:22;;;;;;;5.60;3.90;;;;;;;11.17;100.00;101119.88;5073113;28;20044;-72
2022/10/05 02:53:56;;;;;;;8.82;4.22;;;;;;;11.28;100.00;101123.13;5072975;28;20028;-73
2022/10/05 02:56:41;;;;;;;4.47;3.72;;;;;;;11.26;100.00;101112.13;5084463;28;20512;-71
2022/10/05 02:59:15;;;;;;;5.88;3.95;;;;;;;11.37;100.00;101128.09;5092751;28;20032;-74
2022/10/05 03:02:11;;;;;;;8.40;4.05;;;;;;;11.63;100.00;101126.06;5093166;28;20030;-73
2022/10/05 03:04:36;;;;;;;5.82;4.13;;;;;;;11.34;100.00;101130.69;5092032;28;20036;-74
2022/10/05 03:07:07;;;;;;;8.70;5.70;;;;;;;11.69;100.00;101123.47;5093148;28;20055;-74
2022/10/05 03:09:44;;;;;;;17.80;11.95;;;;;;;11.32;100.00;101076.41;5093201;28;20032;-72
2022/10/05 03:12:39;;;;;;;23.70;18.50;;;;;;;11.03;100.00;101076.75;5092998;28;20036;-74
2022/10/05 03:15:11;;;;;;;76.53;56.70;;;;;;;11.12;100.00;101091.09;5099866;28;20037;-74
2022/10/05 03:17:55;;;;;;;97.88;74.30;;;;;;;11.62;100.00;101134.56;5072771;28;20028;-75
2022/10/05 03:20:48;;;;;;;120.07;88.50;;;;;;;11.54;100.00;101094.78;5076224;28;20430;-75
2022/10/05 03:23:59;;;;;;;117.20;85.85;;;;;;;11.41;100.00;101124.66;5092435;28;20055;-74
2022/10/05 03:26:36;;;;;;;76.63;52.78;;;;;;;11.14;100.00;101130.09;5092271;28;20040;-74
2022/10/05 03:29:18;;;;;;;39.15;26.73;;;;;;;11.15;100.00;101134.34;5108429;28;20096;-74
2022/10/05 03:31:52;;;;;;;20.42;13.40;;;;;;;10.73;100.00;101072.06;5079784;28;20039;-74
2022/10/05 03:34:44;;;;;;;16.30;9.45;;;;;;;11.69;100.00;101136.19;5070885;28;20079;-72
2022/10/05 03:37:21;;;;;;;17.38;9.07;;;;;;;11.56;100.00;101054.84;5055673;28;20098;-73
2022/10/05 03:40:14;;;;;;;14.52;8.60;;;;;;;11.12;100.00;101136.91;5070760;28;20498;-74
2022/10/05 03:42:56;;;;;;;12.07;6.60;;;;;;;11.28;100.00;101133.31;5072279;28;20021;-73
2022/10/05 03:45:39;;;;;;;11.05;6.97;;;;;;;11.05;100.00;101122.56;5072109;28;20112;-75
2022/10/05 03:48:14;;;;;;;30.25;21.02;;;;;;;11.26;100.00;101123.16;5071211;28;20028;-74
2022/10/05 03:50:44;;;;;;;22.55;15.80;;;;;;;10.83;100.00;101149.09;5071449;28;20074;-73
2022/10/05 03:53:21;;;;;;;14.15;6.82;;;;;;;10.94;100.00;101147.28;5071400;28;20038;-73
2022/10/05 03:55:53;;;;;;;13.07;6.68;;;;;;;10.32;100.00;101095.34;5071765;28;20032;-74
2022/10/05 03:58:24;;;;;;;13.27;6.35;;;;;;;10.47;100.00;101091.81;5071178;28;20035;-72
2022/10/05 04:00:56;;;;;;;14.85;6.57;;;;;;;10.51;100.00;101133.31;5071502;28;20490;-74
2022/10/05 04:03:46;;;;;;;12.65;6.50;;;;;;;10.88;100.00;101173.63;5071028;28;20564;-73
2022/10/05 04:06:21;;;;;;;15.73;9.00;;;;;;;10.05;100.00;101135.34;5071086;28;20501;-71
2022/10/05 04:08:55;;;;;;;11.05;7.22;;;;;;;10.82;100.00;101180.47;5070740;28;20032;-73
2022/10/05 04:11:35;;;;;;;11.65;7.55;;;;;;;10.40;100.00;101177.44;5071077;28;20032;-74
2022/10/05 04:14:21;;;;;;;36.38;9.38;;;;;;;12.32;100.00;101103.75;5071260;28;20071;-75
2022/10/05 04:16:57;;;;;;;13.68;7.57;;;;;;;10.78;100.00;101163.56;5071344;28;20033;-75
2022/10/05 04:19:26;;;;;;;15.77;7.35;;;;;;;10.50;100.00;101190.94;5070826;28;20043;-76
2022/10/05 04:22:08;;;;;;;13.30;7.53;;;;;;;11.00;100.00;101190.47;5071241;28;20043;-76
2022/10/05 04:24:43;;;;;;;17.33;7.78;;;;;;;10.59;100.00;101174.75;5070004;28;20123;-76
2022/10/05 04:27:33;;;;;;;15.25;8.18;;;;;;;10.88;100.00;101191.44;5071127;28;20064;-75
2022/10/05 04:30:08;;;;;;;14.15;8.18;;;;;;;10.76;100.00;101188.16;5067937;28;20040;-75
2022/10/05 04:32:42;;;;;;;17.77;8.70;;;;;;;10.96;100.00;101201.53;5071421;28;20082;-73
2022/10/05 04:35:37;;;;;;;19.13;9.20;;;;;;;10.75;100.00;101191.56;5067740;28;20029;-75
2022/10/05 04:38:11;;;;;;;19.95;10.13;;;;;;;10.84;100.00;101196.56;5070579;28;20025;-73
2022/10/05 04:40:55;;;;;;;20.25;9.85;;;;;;;10.95;100.00;101207.50;5071129;28;20045;-73
2022/10/05 04:43:46;;;;;;;19.67;9.77;;;;;;;11.34;100.00;101207.06;5070994;28;20158;-74
2022/10/05 04:46:21;;;;;;;25.02;10.18;;;;;;;14.99;100.00;101202.78;5070808;28;20111;-75
2022/10/05 04:48:46;;;;;;;18.45;9.70;;;;;;;13.49;100.00;101207.97;5070911;28;20040;-74
2022/10/05 04:51:45;;;;;;;15.43;9.43;;;;;;;13.53;100.00;101212.13;5070280;28;20039;-75
2022/10/05 04:54:42;;;;;;;18.75;9.48;;;;;;;13.55;100.00;101218.06;5068445;28;20028;-78
2022/10/05 04:57:18;;;;;;;16.52;9.32;;;;;;;15.87;100.00;101149.00;5085540;28;20071;-73
2022/10/05 05:00:05;;;;;;;19.35;9.40;;;;;;;15.31;100.00;101209.59;5070399;28;20086;-74
2022/10/05 05:02:58;;;;;;;18.17;9.52;;;;;;;12.04;100.00;101212.97;5071062;28;20020;-72
2022/10/05 05:05:41;;;;;;;17.08;9.65;;;;;;;10.71;100.00;101178.06;5070787;28;20058;-73
2022/10/05 05:08:56;;;;;;;18.20;10.18;;;;;;;11.16;100.00;101220.84;5069493;28;20165;-74
2022/10/05 05:11:37;;;;;;;22.55;10.00;;;;;;;10.84;100.00;101177.06;5056824;28;20066;-73
2022/10/05 05:14:11;;;;;;;23.52;10.68;;;;;;;11.34;100.00;101228.28;5069735;28;20062;-72
2022/10/05 05:16:40;;;;;;;25.95;10.82;;;;;;;11.59;100.00;101183.00;5070531;28;20032;-74
2022/10/05 05:19:24;;;;;;;22.33;12.13;;;;;;;11.89;100.00;101242.94;5069407;28;20479;-75
2022/10/05 05:21:52;;;;;;;22.90;12.25;;;;;;;11.51;100.00;101247.63;5071221;28;20116;-77
2022/10/05 05:24:32;;;;;;;21.23;12.02;;;;;;;11.43;100.00;101252.78;5071075;28;20040;-75
2022/10/05 05:27:19;;;;;;;27.02;15.15;;;;;;;11.36;100.00;101269.00;5071192;28;20039;-76
2022/10/05 05:30:01;;;;;;;30.38;16.80;;;;;;;11.06;100.00;101259.97;5070871;28;20025;-75
2022/10/05 05:32:36;;;;;;;22.33;12.88;;;;;;;10.80;100.00;101258.50;5070620;28;20673;-75
2022/10/05 05:35:01;;;;;;;24.10;11.93;;;;;;;11.24;100.00;101264.03;5071003;28;20509;-75
2022/10/05 05:38:11;;;;;;;21.20;12.27;;;;;;;11.56;100.00;101277.28;5070957;28;20063;-75
2022/10/05 05:40:49;;;;;;;26.20;12.13;;;;;;;11.38;100.00;101279.16;5055124;28;20485;-74
2022/10/05 05:43:29;;;;;;;22.88;10.93;;;;;;;11.96;100.00;101278.50;5070578;28;20037;-76
2022/10/05 05:46:13;;;;;;;14.82;9.77;;;;;;;11.47;100.00;101285.00;5069531;28;20137;-73
2022/10/05 05:48:45;;;;;;;17.85;9.82;;;;;;;11.39;100.00;101233.31;5073677;28;20024;-73
2022/10/05 05:51:16;;;;;;;15.15;9.35;;;;;;;11.62;100.00;101289.94;5073864;28;20024;-73
2022/10/05 05:53:45;;;;;;;16.38;8.90;;;;;;;11.82;100.00;101288.06;5073029;28;20115;-74
2022/10/05 05:56:19;;;;;;;13.68;8.70;;;;;;;12.86;100.00;101261.03;5074581;28;20534;-73
2022/10/05 05:58:55;;;;;;;15.38;8.15;;;;;;;12.86;100.00;101284.00;5074077;28;20040;-75
2022/10/05 06:01:39;;;;;;;16.70;8.75;;;;;;;12.45;100.00;101170.72;5073624;28;20025;-73
2022/10/05 06:04:16;;;;;;;14.80;8.38;;;;;;;13.86;100.00;101290.69;5074483;28;20029;-74
2022/10/05 06:06:48;;;;;;;16.95;8.27;;;;;;;12.91;100.00;101256.69;5072750;28;20028;-74
2022/10/05 06:09:46;;;;;;;14.25;7.35;;;;;;;13.34;100.00;101299.38;5073970;28;20111;-75
2022/10/05 06:12:18;;;;;;;13.00;7.30;;;;;;;14.20;100.00;101303.59;5070655;28;20527;-74
2022/10/05 06:14:49;;;;;;;16.83;7.55;;;;;;;14.26;100.00;101289.88;5074072;28;20120;-73
2022/10/05 06:17:40;;;;;;;15.60;7.60;;;;;;;14.25;100.00;101244.69;5073260;28;20077;-73
2022/10/05 06:20:15;;;;;;;15.90;6.25;;;;;;;14.63;100.00;101255.75;5065507;28;20040;-74
2022/10/05 06:22:44;;;;;;;15.88;6.63;;;;;;;14.68;100.00;101245.38;5073182;28;20483;-73
2022/10/05 06:25:14;;;;;;;11.13;6.75;;;;;;;14.22;100.00;101313.81;5074228;28;20045;-73
2022/10/05 06:27:58;;;;;;;14.68;7.47;;;;;;;14.13;100.00;101314.00;5089159;28;20115;-72
2022/10/05 06:30:27;;;;;;;8.98;6.90;;;;;;;14.89;100.00;101298.66;5073814;28;20032;-73
2022/10/05 06:33:40;;;;;;;12.45;7.03;;;;;;;15.28;100.00;101307.88;5072410;28;20038;-74
2022/10/05 06:36:34;;;;;;;10.27;6.25;;;;;;;15.30;100.00;101262.56;5045681;28;20044;-73
2022/10/05 06:39:19;;;;;;;12.77;6.45;;;;;;;15.57;100.00;101317.38;5071377;28;20427;-73
2022/10/05 06:42:06;;;;;;;16.55;7.35;;;;;;;15.84;100.00;101311.53;5073659;28;20097;-73
2022/10/05 06:44:40;;;;;;;13.95;6.10;;;;;;;15.99;100.00;101323.91;5072114;28;20056;-73
2022/10/05 06:47:30;;;;;;;16.02;6.60;;;;;;;16.55;100.00;101309.44;5089062;28;20275;-73
2022/10/05 06:50:11;;;;;;;9.52;5.10;;;;;;;17.01;100.00;101313.94;5071910;28;20036;-73
2022/10/05 06:53:14;;;;;;;9.95;4.68;;;;;;;17.22;100.00;101319.22;5073013;28;20032;-73
2022/10/05 06:55:45;;;;;;;7.93;4.78;;;;;;;16.74;100.00;101318.22;5088407;28;20028;-73
2022/10/05 06:58:38;;;;;;;6.47;4.68;;;;;;;17.31;100.00;101318.88;5072997;28;20027;-74
2022/10/05 07:01:29;;;;;;;6.97;3.30;;;;;;;18.52;100.00;101317.03;5073056;28;20024;-72
2022/10/05 07:04:33;;;;;;;5.93;2.97;;;;;;;18.73;100.00;101315.34;5043927;28;20066;-75
2022/10/05 07:07:07;;;;;;;5.45;2.55;;;;;;;18.61;100.00;101308.97;5010879;28;20030;-73
2022/10/05 07:09:50;;;;;;;5.22;2.45;;;;;;;18.45;100.00;101314.75;5010729;28;20124;-72
2022/10/05 07:12:34;;;;;;;4.15;2.30;;;;;;;17.59;100.00;101308.50;5050553;28;20051;-73
2022/10/05 07:15:21;;;;;;;4.43;2.00;;;;;;;19.10;100.00;101312.09;5072371;28;20020;-73
2022/10/05 07:18:02;;;;;;;6.30;2.72;;;;;;;18.44;98.76;101277.84;5072869;28;20119;-74
2022/10/05 07:20:31;;;;;;;;;;;;;;;18.37;100.00;101307.31;5072913;28;20029;-72
2022/10/05 07:23:11;;;;;;;4.57;2.83;;;;;;;19.57;99.28;101313.56;5071943;28;20357;-73
2022/10/05 07:25:42;;;;;;;4.43;1.90;;;;;;;19.45;94.24;101309.75;5072518;28;20044;-72
2022/10/05 07:28:13;;;;;;;;;;;;;;;19.26;91.52;101308.00;5072559;28;20086;-72
2022/10/05 07:30:54;;;;;;;2.97;1.05;;;;;;;19.70;83.73;101258.75;5087945;28;19912;-71
2022/10/05 07:33:27;;;;;;;6.57;1.40;;;;;;;19.57;83.82;101267.94;5070915;28;20413;-73
2022/10/05 07:39:00;;;;;;;3.00;1.30;;;;;;;20.24;82.08;101313.97;5072331;28;20043;-72
2022/10/05 07:41:49;;;;;;;4.43;1.52;;;;;;;20.09;83.43;101312.06;5071749;28;20564;-73
2022/10/05 07:44:28;;;;;;;3.05;1.55;;;;;;;20.25;82.20;101315.63;5072150;28;20036;-72
2022/10/05 07:47:12;;;;;;;2.88;1.40;;;;;;;19.34;84.53;101218.25;5072182;28;20043;-75
2022/10/05 07:49:58;;;;;;;2.85;1.40;;;;;;;20.06;78.27;101317.38;5070781;28;20036;-73
2022/10/05 07:52:32;;;;;;;2.60;1.40;;;;;;;20.10;77.19;101312.00;5072048;28;20033;-74
2022/10/05 07:55:15;;;;;;;5.05;1.48;;;;;;;19.33;81.10;101211.44;5071958;28;20174;-75
2022/10/05 07:58:01;;;;;;;2.42;1.65;;;;;;;20.32;75.54;101307.53;5072093;28;20108;-74
2022/10/05 08:01:02;;;;;;;3.55;1.75;;;;;;;20.51;74.75;101302.34;5086062;28;20036;-74
2022/10/05 08:03:48;;;;;;;3.90;2.20;;;;;;;20.53;72.32;101319.47;5059694;28;20083;-74
2022/10/05 08:06:39;;;;;;;2.35;1.40;;;;;;;20.84;67.96;101320.56;5069990;28;20052;-73
2022/10/05 08:09:11;;;;;;;5.95;1.50;;;;;;;20.74;68.71;101312.41;5087134;28;20061;-73
2022/10/05 08:11:48;;;;;;;;;;;;;;;21.13;65.00;101315.66;5087115;28;20025;-75
2022/10/05 08:14:22;;;;;;;2.03;1.20;;;;;;;21.19;66.90;101314.53;5071297;28;19912;-75
2022/10/05 08:16:53;;;;;;;4.65;1.80;;;;;;;21.33;65.41;101306.91;5071818;28;20043;-73
2022/10/05 08:19:18;;;;;;;4.63;1.70;;;;;;;20.42;71.89;101313.94;5071158;28;20032;-73
2022/10/05 08:21:51;;;;;;;5.20;1.75;;;;;;;21.45;67.20;101314.03;5070834;28;20434;-74
2022/10/05 08:24:45;;;;;;;4.80;1.63;;;;;;;21.24;63.56;101318.53;5070544;28;20090;-73
2022/10/05 08:27:17;;;;;;;2.63;1.70;;;;;;;20.93;57.52;101313.19;5071129;28;20036;-73
2022/10/05 08:29:53;;;;;;;1.52;0.98;;;;;;;20.78;57.55;101310.53;5069464;28;20032;-74
2022/10/05 08:32:30;;;;;;;11.40;5.22;;;;;;;20.76;56.02;101274.38;5069759;28;20033;-73
2022/10/05 08:35:24;;;;;;;4.25;1.52;;;;;;;21.24;55.94;101320.28;5069834;28;20491;-72
2022/10/05 08:37:50;;;;;;;2.00;1.00;;;;;;;21.34;56.09;101299.06;5071412;28;20028;-73
2022/10/05 08:40:33;;;;;;;2.53;1.00;;;;;;;21.49;56.39;101311.19;5071166;28;20398;-73
2022/10/05 08:43:05;;;;;;;1.20;0.90;;;;;;;21.25;53.91;101321.97;5071188;28;20037;-74
2022/10/05 08:45:39;;;;;;;;;;;;;;;20.90;54.64;101313.34;5071455;28;20032;-73
2022/10/05 08:48:41;;;;;;;1.88;0.90;;;;;;;21.56;53.40;101307.38;5070717;28;19915;-74
2022/10/05 08:51:12;;;;;;;2.25;1.00;;;;;;;20.85;52.60;101314.47;5071187;28;20032;-73
2022/10/05 08:54:05;;;;;;;1.52;0.85;;;;;;;21.26;52.69;101301.19;5070865;28;20119;-73
2022/10/05 08:56:31;;;;;;;2.67;1.13;;;;;;;21.34;51.30;101299.06;5070862;28;20407;-72
2022/10/05 08:59:26;;;;;;;2.22;1.00;;;;;;;21.64;51.19;101296.63;5071084;28;20028;-72
2022/10/05 09:02:19;;;;;;;3.17;1.08;;;;;;;21.81;50.37;101298.38;5070898;28;20033;-74
2022/10/05 09:05:06;;;;;;;2.08;0.80;;;;;;;22.02;50.12;101292.88;5086326;28;20092;-73
2022/10/05 09:07:49;;;;;;;3.35;1.20;;;;;;;22.34;48.42;101276.38;5071268;28;20034;-74
2022/10/05 09:10:52;;;;;;;1.75;0.90;;;;;;;21.83;47.44;101292.16;5070714;28;20020;-72
2022/10/05 09:13:48;;;;;;;2.25;0.65;;;;;;;22.11;47.86;101287.19;5085303;28;20033;-74
2022/10/05 09:16:33;;;;;;;2.08;0.77;;;;;;;22.41;47.73;101287.25;5072537;28;20096;-73
2022/10/05 09:19:14;;;;;;;0.98;0.60;;;;;;;21.53;47.96;101247.19;5080292;28;20098;-71
2022/10/05 09:21:43;;;;;;;1.95;0.73;;;;;;;21.28;47.70;101298.50;5078719;28;20043;-72
2022/10/05 09:24:11;;;;;;;1.92;0.65;;;;;;;21.37;46.51;101298.06;5071333;28;20127;-72
2022/10/05 09:26:39;;;;;;;1.75;0.60;;;;;;;21.99;46.01;101287.00;5074474;28;20028;-71
2022/10/05 09:29:26;;;;;;;1.52;0.63;;;;;;;22.16;45.78;101290.38;5074425;28;20033;-70
2022/10/05 09:32:01;;;;;;;1.17;0.63;;;;;;;22.86;43.74;101301.97;5074214;28;20094;-70
2022/10/05 09:34:35;;;;;;;1.67;0.63;;;;;;;22.34;46.32;101299.69;5074072;28;20032;-71
2022/10/05 09:37:29;;;;;;;1.52;0.73;;;;;;;23.12;44.73;101296.09;5074165;28;20024;-70
2022/10/05 09:40:12;;;;;;;2.03;0.60;;;;;;;23.46;45.58;101301.00;5074366;28;20518;-71
2022/10/05 09:43:36;;;;;;;1.33;0.57;;;;;;;23.14;43.92;101297.69;5073987;28;20036;-72
2022/10/05 09:46:24;;;;;;;2.17;0.50;;;;;;;22.40;44.72;101291.56;5045139;28;20535;-74
2022/10/05 09:49:06;;;;;;;1.13;0.47;;;;;;;21.79;44.69;101196.59;5072192;28;20115;-72
2022/10/05 09:51:59;;;;;;;2.20;0.70;;;;;;;23.83;44.09;101281.41;5073424;28;20032;-75
2022/10/05 09:54:46;;;;;;;0.90;0.63;;;;;;;22.72;45.10;101288.97;5088782;28;20029;-73
2022/10/05 09:57:47;;;;;;;1.77;0.75;;;;;;;22.28;45.75;101289.66;5073263;28;20570;-74
2022/10/05 10:00:35;;;;;;;1.38;0.75;;;;;;;22.12;44.59;101293.19;5072890;28;20029;-75
2022/10/05 10:03:17;;;;;;;1.40;0.70;;;;;;;22.96;45.47;101288.38;5073213;28;20039;-72
2022/10/05 10:06:18;;;;;;;1.70;0.77;;;;;;;22.84;45.15;101283.09;5072956;28;20814;-72
2022/10/05 10:09:11;;;;;;;2.07;1.03;;;;;;;24.00;43.53;101279.44;5040756;28;20253;-73
2022/10/05 10:12:15;;;;;;;3.08;0.93;;;;;;;23.94;43.02;101253.84;5073092;28;20085;-73
2022/10/05 10:15:19;;;;;;;2.22;0.80;;;;;;;24.05;41.54;101281.75;5073344;28;20029;-72
2022/10/05 10:18:12;;;;;;;2.85;0.70;;;;;;;24.34;41.49;101287.72;5073812;28;20039;-72
2022/10/05 10:21:02;;;;;;;1.60;0.60;;;;;;;24.79;41.62;101290.81;5073432;28;20032;-70
2022/10/05 10:23:59;;;;;;;1.67;0.85;;;;;;;23.59;43.35;101288.94;5072817;28;20044;-71
2022/10/05 10:27:01;;;;;;;2.30;0.70;;;;;;;23.38;44.94;101289.41;5073084;28;20514;-71
2022/10/05 10:29:42;;;;;;;1.17;0.60;;;;;;;23.33;43.42;101230.00;5088577;28;20025;-70
2022/10/05 10:32:38;;;;;;;1.48;0.60;;;;;;;23.46;42.53;101272.44;5088707;28;20578;-73
2022/10/05 10:35:29;;;;;;;1.52;0.70;;;;;;;23.01;42.09;101280.34;5087778;28;20044;-72
2022/10/05 10:38:19;;;;;;;1.33;0.70;;;;;;;23.49;42.77;101277.47;5072740;28;20024;-73
2022/10/05 10:41:04;;;;;;;2.83;0.73;;;;;;;23.69;43.40;101271.06;5072733;28;20032;-70
2022/10/05 10:43:57;;;;;;;1.23;0.70;;;;;;;24.11;43.16;101264.97;5072664;28;20052;-71
2022/10/05 10:47:04;;;;;;;1.20;0.80;;;;;;;23.30;44.72;101279.44;5088601;28;20098;-70
2022/10/05 10:50:17;;;;;;;2.22;0.70;;;;;;;22.57;45.56;101269.06;5010751;28;20124;-72
2022/10/05 10:53:01;;;;;;;3.17;0.70;;;;;;;23.73;43.44;101257.75;4994126;28;20029;-72
2022/10/05 10:55:27;;;;;;;3.58;0.63;;;;;;;23.68;44.07;101262.41;5068302;28;20040;-73
2022/10/05 10:58:20;;;;;;;2.63;0.88;;;;;;;21.75;46.31;101260.63;5087963;28;20029;-70
2022/10/05 11:01:01;;;;;;;1.20;0.80;;;;;;;21.70;47.52;101267.81;5072647;28;20558;-70
2022/10/05 11:03:57;;;;;;;3.93;0.90;;;;;;;21.37;48.16;101267.00;5072654;28;20086;-73
2022/10/05 11:06:41;;;;;;;1.77;0.70;;;;;;;21.51;47.57;101259.38;5087788;28;20041;-72
2022/10/05 11:09:11;;;;;;;1.98;0.70;;;;;;;21.74;49.56;101260.72;5072340;28;20032;-72
2022/10/05 11:11:56;;;;;;;1.80;0.70;;;;;;;21.62;48.36;101253.59;5072135;28;20500;-71
2022/10/05 11:14:47;;;;;;;1.30;0.60;;;;;;;22.29;46.39;101243.84;5072134;28;20020;-71
2022/10/05 11:17:32;;;;;;;0.80;0.70;;;;;;;23.15;45.12;101249.22;5072195;28;20112;-71
2022/10/05 11:20:16;;;;;;;3.63;0.75;;;;;;;23.55;43.37;101242.50;5070856;28;20577;-71
2022/10/05 11:23:13;;;;;;;4.22;0.60;;;;;;;23.68;40.75;101236.44;5072021;28;20033;-70
2022/10/05 11:26:08;;;;;;;2.20;0.60;;;;;;;23.60;40.91;101165.94;5071875;28;20075;-72
2022/10/05 11:28:40;;;;;;;0.80;0.57;;;;;;;23.95;40.38;101229.50;5072083;28;20404;-71
2022/10/05 11:31:26;;;;;;;1.30;0.70;;;;;;;23.89;41.49;101229.88;5072220;28;20024;-72
2022/10/05 11:34:10;;;;;;;2.13;0.70;;;;;;;23.75;42.48;101229.09;5087343;28;20096;-72
2022/10/05 11:36:38;;;;;;;2.58;0.90;;;;;;;23.93;41.50;101222.72;5071513;28;20051;-74
2022/10/05 11:39:19;;;;;;;4.13;0.95;;;;;;;24.31;41.14;101223.75;5087396;28;20021;-71
2022/10/05 11:42:22;;;;;;;1.55;0.70;;;;;;;24.39;40.59;101223.25;5087063;28;20035;-71
2022/10/05 11:45:05;;;;;;;1.08;0.60;;;;;;;23.43;40.57;101228.50;5086642;28;20074;-70
2022/10/05 11:47:42;;;;;;;1.23;0.55;;;;;;;23.87;41.40;101223.97;5070058;28;20029;-72
2022/10/05 11:50:46;;;;;;;3.10;0.70;;;;;;;23.69;40.18;101213.91;5071448;28;20401;-70
2022/10/05 11:53:24;;;;;;;1.05;0.50;;;;;;;22.60;42.23;101224.84;5045763;28;20033;-71
2022/10/05 11:56:06;;;;;;;2.50;0.60;;;;;;;22.96;42.53;101170.78;5086879;28;20086;-71
2022/10/05 11:58:55;;;;;;;1.45;0.60;;;;;;;23.38;40.82;101219.31;5087228;28;20032;-71
2022/10/05 12:01:29;;;;;;;2.20;0.60;;;;;;;22.46;42.56;101108.09;5070086;28;20036;-73
2022/10/05 12:04:26;;;;;;;1.70;0.60;;;;;;;23.35;41.51;101202.16;5086712;28;20054;-72
2022/10/05 12:07:19;;;;;;;1.58;0.73;;;;;;;24.09;41.23;101203.50;5071367;28;20034;-73
2022/10/05 12:10:21;;;;;;;2.15;0.98;;;;;;;23.62;41.77;101184.03;5086689;28;20054;-74
2022/10/05 12:13:20;;;;;;;2.55;0.80;;;;;;;23.87;42.02;101200.56;5070962;28;20037;-73
2022/10/05 12:16:11;;;;;;;1.27;0.70;;;;;;;24.26;41.88;101198.97;5086505;28;20028;-73
2022/10/05 12:18:49;;;;;;;1.67;0.68;;;;;;;23.22;43.06;101194.25;5070928;28;20135;-72
2022/10/05 12:21:32;;;;;;;1.10;0.70;;;;;;;22.92;42.97;101140.75;5071321;28;20032;-72
2022/10/05 12:24:02;;;;;;;0.60;0.60;;;;;;;22.35;43.96;101189.09;5086876;28;20021;-72
2022/10/05 12:26:54;;;;;;;1.20;0.60;;;;;;;23.46;43.56;101178.13;5086216;28;20059;-72
2022/10/05 12:29:50;;;;;;;1.27;0.75;;;;;;;22.99;44.55;101186.19;5070505;28;20033;-72
2022/10/05 12:32:32;;;;;;;2.42;0.75;;;;;;;24.01;43.18;101161.53;5070718;28;20040;-73